sensor_id;sensor_type;location;lat;lon;timestamp;P1;durP1;ratioP1;P2;durP2;ratioP2
20984;SDS011;10651;47.552;7.606;2024-02-14T07:02:52;13.32;;;6.38;;
20984;SDS011;10651;47.552;7.606;2024-02-14T07:05:20;15.77;;;7.20;;
20984;SDS011;10651;47.552;7.606;2024-02-14T07:07:46;16.02;;;6.82;;
20984;SDS011;10651;47.552;7.606;2024-02-14T07:10:12;10.60;;;6.75;;
20984;SDS011;10651;47.552;7.606;2024-02-14T07:12:37;17.45;;;6.75;;
20984;SDS011;10651;47.552;7.606;2024-02-14T07:15:04;14.07;;;7.10;;
20984;SDS011;10651;47.552;7.606;2024-02-14T07:17:30;9.73;;;6.45;;
20984;SDS011;10651;47.552;7.606;2024-02-14T07:19:56;12.93;;;7.05;;
20984;SDS011;10651;47.552;7.606;2024-02-14T07:22:22;15.63;;;7.25;;
20984;SDS011;10651;47.552;7.606;2024-02-14T07:24:48;12.57;;;7.35;;
20984;SDS011;10651;47.552;7.606;2024-02-14T07:27:21;17.27;;;8.52;;
20984;SDS011;10651;47.552;7.606;2024-02-14T07:32:52;22.33;;;8.05;;
20984;SDS011;10651;47.552;7.606;2024-02-14T07:35:18;11.88;;;7.35;;
20984;SDS011;10651;47.552;7.606;2024-02-14T07:37:44;14.82;;;8.02;;
20984;SDS011;10651;47.552;7.606;2024-02-14T07:40:10;17.25;;;7.72;;
20984;SDS011;10651;47.552;7.606;2024-02-14T07:42:36;13.80;;;7.85;;
20984;SDS011;10651;47.552;7.606;2024-02-14T07:45:01;16.75;;;7.47;;
20984;SDS011;10651;47.552;7.606;2024-02-14T07:47:28;13.18;;;7.47;;
20984;SDS011;10651;47.552;7.606;2024-02-14T07:49:54;14.93;;;6.90;;
20984;SDS011;10651;47.552;7.606;2024-02-14T07:52:20;15.02;;;7.90;;
20984;SDS011;10651;47.552;7.606;2024-02-14T07:54:46;18.70;;;7.47;;
20984;SDS011;10651;47.552;7.606;2024-02-14T07:57:12;22.35;;;9.32;;
20984;SDS011;10651;47.552;7.606;2024-02-14T07:59:37;21.73;;;8.52;;
20984;SDS011;10651;47.552;7.606;2024-02-14T08:02:03;22.83;;;9.57;;
20984;SDS011;10651;47.552;7.606;2024-02-14T08:04:29;24.98;;;8.98;;
20984;SDS011;10651;47.552;7.606;2024-02-14T08:06:54;28.70;;;9.07;;
20984;SDS011;10651;47.552;7.606;2024-02-14T08:09:20;31.85;;;9.82;;
20984;SDS011;10651;47.552;7.606;2024-02-14T08:11:45;19.10;;;9.90;;
20984;SDS011;10651;47.552;7.606;2024-02-14T08:14:11;22.92;;;10.57;;
20984;SDS011;10651;47.552;7.606;2024-02-14T08:16:37;27.77;;;10.00;;
20984;SDS011;10651;47.552;7.606;2024-02-14T08:19:03;20.73;;;10.25;;
20984;SDS011;10651;47.552;7.606;2024-02-14T08:21:28;25.10;;;10.45;;
20984;SDS011;10651;47.552;7.606;2024-02-14T08:23:54;18.63;;;10.25;;
20984;SDS011;10651;47.552;7.606;2024-02-14T08:26:23;17.67;;;9.68;;
20984;SDS011;10651;47.552;7.606;2024-02-14T08:28:49;26.30;;;9.40;;
20984;SDS011;10651;47.552;7.606;2024-02-14T08:31:15;21.25;;;8.88;;
20984;SDS011;10651;47.552;7.606;2024-02-14T08:33:41;19.05;;;9.07;;
20984;SDS011;10651;47.552;7.606;2024-02-14T08:36:07;21.05;;;9.00;;
20984;SDS011;10651;47.552;7.606;2024-02-14T08:38:33;21.85;;;8.88;;
20984;SDS011;10651;47.552;7.606;2024-02-14T08:41:00;18.10;;;8.77;;
20984;SDS011;10651;47.552;7.606;2024-02-14T08:43:29;22.48;;;8.80;;
20984;SDS011;10651;47.552;7.606;2024-02-14T08:45:55;20.90;;;8.45;;
20984;SDS011;10651;47.552;7.606;2024-02-14T08:48:24;16.30;;;9.02;;
20984;SDS011;10651;47.552;7.606;2024-02-14T08:50:52;21.67;;;8.75;;
20984;SDS011;10651;47.552;7.606;2024-02-14T08:53:21;21.63;;;8.43;;
20984;SDS011;10651;47.552;7.606;2024-02-14T08:55:47;15.32;;;8.85;;
20984;SDS011;10651;47.552;7.606;2024-02-14T08:58:20;20.05;;;8.55;;
20984;SDS011;10651;47.552;7.606;2024-02-14T09:00:47;21.15;;;8.63;;
20984;SDS011;10651;47.552;7.606;2024-02-14T09:03:13;22.60;;;8.82;;
20984;SDS011;10651;47.552;7.606;2024-02-14T09:05:39;17.33;;;8.13;;
20984;SDS011;10651;47.552;7.606;2024-02-14T09:08:05;21.77;;;8.13;;
20984;SDS011;10651;47.552;7.606;2024-02-14T09:10:30;13.73;;;7.78;;
20984;SDS011;10651;47.552;7.606;2024-02-14T09:12:56;20.42;;;8.90;;
20984;SDS011;10651;47.552;7.606;2024-02-14T09:15:22;20.92;;;9.80;;
20984;SDS011;10651;47.552;7.606;2024-02-14T09:17:47;22.25;;;9.30;;
20984;SDS011;10651;47.552;7.606;2024-02-14T09:20:13;26.63;;;9.85;;
20984;SDS011;10651;47.552;7.606;2024-02-14T09:22:39;17.45;;;8.77;;
20984;SDS011;10651;47.552;7.606;2024-02-14T09:25:06;24.27;;;9.02;;
20984;SDS011;10651;47.552;7.606;2024-02-14T09:27:34;24.52;;;9.10;;
20984;SDS011;10651;47.552;7.606;2024-02-14T09:30:01;19.27;;;8.57;;
20984;SDS011;10651;47.552;7.606;2024-02-14T09:32:31;24.23;;;8.85;;
20984;SDS011;10651;47.552;7.606;2024-02-14T09:34:57;23.55;;;8.27;;
20984;SDS011;10651;47.552;7.606;2024-02-14T09:37:23;10.27;;;6.78;;
20984;SDS011;10651;47.552;7.606;2024-02-14T09:39:49;21.95;;;8.88;;
20984;SDS011;10651;47.552;7.606;2024-02-14T09:42:15;15.85;;;7.90;;
20984;SDS011;10651;47.552;7.606;2024-02-14T09:44:44;20.85;;;8.00;;
20984;SDS011;10651;47.552;7.606;2024-02-14T09:47:11;18.48;;;8.40;;
20984;SDS011;10651;47.552;7.606;2024-02-14T09:49:39;18.55;;;7.93;;
20984;SDS011;10651;47.552;7.606;2024-02-14T09:52:06;20.05;;;7.60;;
20984;SDS011;10651;47.552;7.606;2024-02-14T09:54:33;25.48;;;8.45;;
20984;SDS011;10651;47.552;7.606;2024-02-14T09:56:59;30.45;;;7.07;;
20984;SDS011;10651;47.552;7.606;2024-02-14T09:59:28;22.08;;;8.45;;
20984;SDS011;10651;47.552;7.606;2024-02-14T10:01:54;23.63;;;10.90;;
20984;SDS011;10651;47.552;7.606;2024-02-14T10:04:23;27.02;;;11.02;;
20984;SDS011;10651;47.552;7.606;2024-02-14T10:06:52;17.75;;;9.45;;
20984;SDS011;10651;47.552;7.606;2024-02-14T10:09:21;27.10;;;9.52;;
20984;SDS011;10651;47.552;7.606;2024-02-14T10:11:48;15.80;;;9.13;;
20984;SDS011;10651;47.552;7.606;2024-02-14T10:14:14;25.50;;;8.70;;
20984;SDS011;10651;47.552;7.606;2024-02-14T10:16:40;16.00;;;8.32;;
20984;SDS011;10651;47.552;7.606;2024-02-14T10:19:14;24.17;;;9.63;;
20984;SDS011;10651;47.552;7.606;2024-02-14T10:21:41;23.35;;;8.80;;
20984;SDS011;10651;47.552;7.606;2024-02-14T10:24:07;20.83;;;8.70;;
20984;SDS011;10651;47.552;7.606;2024-02-14T10:26:34;23.55;;;9.02;;
20984;SDS011;10651;47.552;7.606;2024-02-14T10:29:00;31.77;;;8.75;;
20984;SDS011;10651;47.552;7.606;2024-02-14T10:31:29;18.25;;;8.32;;
20984;SDS011;10651;47.552;7.606;2024-02-14T10:34:04;18.23;;;7.82;;
20984;SDS011;10651;47.552;7.606;2024-02-14T10:36:31;26.13;;;9.45;;
20984;SDS011;10651;47.552;7.606;2024-02-14T10:39:16;22.88;;;8.43;;
20984;SDS011;10651;47.552;7.606;2024-02-14T10:42:05;18.90;;;7.95;;
20984;SDS011;10651;47.552;7.606;2024-02-14T10:44:44;19.42;;;8.30;;
20984;SDS011;10651;47.552;7.606;2024-02-14T10:47:19;13.02;;;7.15;;
20984;SDS011;10651;47.552;7.606;2024-02-14T10:49:58;16.80;;;8.25;;
20984;SDS011;10651;47.552;7.606;2024-02-14T10:52:34;20.52;;;7.38;;
20984;SDS011;10651;47.552;7.606;2024-02-14T10:55:09;10.30;;;6.65;;
20984;SDS011;10651;47.552;7.606;2024-02-14T10:57:39;17.48;;;7.47;;
20984;SDS011;10651;47.552;7.606;2024-02-14T11:00:06;19.13;;;7.85;;
20984;SDS011;10651;47.552;7.606;2024-02-14T11:02:36;21.98;;;9.20;;
20984;SDS011;10651;47.552;7.606;2024-02-14T11:05:02;15.27;;;6.72;;
20984;SDS011;10651;47.552;7.606;2024-02-14T11:07:29;14.18;;;6.65;;
20984;SDS011;10651;47.552;7.606;2024-02-14T11:12:33;12.88;;;4.93;;
20984;SDS011;10651;47.552;7.606;2024-02-14T11:15:01;8.55;;;5.20;;
20984;SDS011;10651;47.552;7.606;2024-02-14T11:17:36;7.78;;;5.15;;
20984;SDS011;10651;47.552;7.606;2024-02-14T11:20:14;12.18;;;4.70;;
20984;SDS011;10651;47.552;7.606;2024-02-14T11:22:49;15.68;;;5.13;;
20984;SDS011;10651;47.552;7.606;2024-02-14T11:25:18;10.30;;;4.90;;
20984;SDS011;10651;47.552;7.606;2024-02-14T11:27:46;10.80;;;4.47;;
20984;SDS011;10651;47.552;7.606;2024-02-14T11:30:14;8.88;;;4.30;;
20984;SDS011;10651;47.552;7.606;2024-02-14T11:32:40;7.88;;;4.47;;
20984;SDS011;10651;47.552;7.606;2024-02-14T11:35:11;5.90;;;3.60;;
20984;SDS011;10651;47.552;7.606;2024-02-14T11:37:38;8.38;;;4.30;;
20984;SDS011;10651;47.552;7.606;2024-02-14T11:40:03;11.30;;;4.43;;
20984;SDS011;10651;47.552;7.606;2024-02-14T11:42:32;12.40;;;4.82;;
20984;SDS011;10651;47.552;7.606;2024-02-14T11:44:58;9.48;;;4.75;;
20984;SDS011;10651;47.552;7.606;2024-02-14T11:47:25;12.90;;;4.85;;
20984;SDS011;10651;47.552;7.606;2024-02-14T11:49:50;7.13;;;4.18;;
20984;SDS011;10651;47.552;7.606;2024-02-14T11:52:17;6.35;;;3.63;;
20984;SDS011;10651;47.552;7.606;2024-02-14T11:54:47;6.00;;;3.88;;
20984;SDS011;10651;47.552;7.606;2024-02-14T11:57:18;9.38;;;3.70;;
20984;SDS011;10651;47.552;7.606;2024-02-14T11:59:44;8.40;;;3.05;;
20984;SDS011;10651;47.552;7.606;2024-02-14T12:02:12;4.63;;;3.00;;
20984;SDS011;10651;47.552;7.606;2024-02-14T12:04:44;5.47;;;3.20;;
20984;SDS011;10651;47.552;7.606;2024-02-14T12:07:15;6.43;;;3.38;;
20984;SDS011;10651;47.552;7.606;2024-02-14T12:09:47;6.10;;;3.63;;
20984;SDS011;10651;47.552;7.606;2024-02-14T12:12:14;8.68;;;3.45;;
20984;SDS011;10651;47.552;7.606;2024-02-14T12:14:43;7.05;;;3.38;;
20984;SDS011;10651;47.552;7.606;2024-02-14T12:17:10;10.77;;;4.68;;
20984;SDS011;10651;47.552;7.606;2024-02-14T12:23:22;6.57;;;4.15;;
20984;SDS011;10651;47.552;7.606;2024-02-14T12:25:50;7.13;;;4.28;;
20984;SDS011;10651;47.552;7.606;2024-02-14T12:28:18;10.52;;;4.38;;
20984;SDS011;10651;47.552;7.606;2024-02-14T12:30:49;11.27;;;3.95;;
20984;SDS011;10651;47.552;7.606;2024-02-14T12:33:26;6.40;;;3.97;;
20984;SDS011;10651;47.552;7.606;2024-02-14T12:36:15;8.27;;;3.97;;
20984;SDS011;10651;47.552;7.606;2024-02-14T12:39:07;8.90;;;4.40;;
20984;SDS011;10651;47.552;7.606;2024-02-14T12:41:34;12.70;;;5.20;;
20984;SDS011;10651;47.552;7.606;2024-02-14T12:44:02;8.05;;;4.65;;
20984;SDS011;10651;47.552;7.606;2024-02-14T12:46:27;12.35;;;4.75;;
20984;SDS011;10651;47.552;7.606;2024-02-14T12:48:54;16.58;;;4.80;;
20984;SDS011;10651;47.552;7.606;2024-02-14T12:51:20;13.18;;;4.47;;
20984;SDS011;10651;47.552;7.606;2024-02-14T12:53:47;13.05;;;4.38;;
20984;SDS011;10651;47.552;7.606;2024-02-14T12:56:22;9.50;;;3.90;;
20984;SDS011;10651;47.552;7.606;2024-02-14T12:58:48;7.85;;;4.18;;
20984;SDS011;10651;47.552;7.606;2024-02-14T13:01:15;11.30;;;5.05;;
20984;SDS011;10651;47.552;7.606;2024-02-14T13:03:44;13.48;;;5.00;;
20984;SDS011;10651;47.552;7.606;2024-02-14T13:06:13;10.38;;;4.43;;
20984;SDS011;10651;47.552;7.606;2024-02-14T13:08:41;6.97;;;4.43;;
20984;SDS011;10651;47.552;7.606;2024-02-14T13:11:14;6.93;;;4.20;;
20984;SDS011;10651;47.552;7.606;2024-02-14T13:13:41;11.32;;;4.25;;
20984;SDS011;10651;47.552;7.606;2024-02-14T13:16:08;8.77;;;4.93;;
20984;SDS011;10651;47.552;7.606;2024-02-14T13:18:34;9.48;;;4.65;;
20984;SDS011;10651;47.552;7.606;2024-02-14T13:21:00;5.28;;;2.88;;
20984;SDS011;10651;47.552;7.606;2024-02-14T13:23:26;7.35;;;2.83;;
20984;SDS011;10651;47.552;7.606;2024-02-14T13:25:52;6.47;;;2.88;;
20984;SDS011;10651;47.552;7.606;2024-02-14T13:28:18;9.75;;;3.05;;
20984;SDS011;10651;47.552;7.606;2024-02-14T13:30:44;5.70;;;2.45;;
20984;SDS011;10651;47.552;7.606;2024-02-14T13:33:13;3.67;;;2.47;;
20984;SDS011;10651;47.552;7.606;2024-02-14T13:35:39;7.05;;;2.67;;
20984;SDS011;10651;47.552;7.606;2024-02-14T13:38:05;3.75;;;2.50;;
20984;SDS011;10651;47.552;7.606;2024-02-14T13:40:37;3.85;;;1.90;;
20984;SDS011;10651;47.552;7.606;2024-02-14T13:43:04;3.42;;;2.10;;
20984;SDS011;10651;47.552;7.606;2024-02-14T13:45:43;5.47;;;2.25;;
20984;SDS011;10651;47.552;7.606;2024-02-14T13:48:11;4.38;;;2.28;;
20984;SDS011;10651;47.552;7.606;2024-02-14T13:50:41;5.13;;;2.40;;
20984;SDS011;10651;47.552;7.606;2024-02-14T13:53:08;4.72;;;3.08;;
20984;SDS011;10651;47.552;7.606;2024-02-14T13:55:34;7.47;;;2.63;;
20984;SDS011;10651;47.552;7.606;2024-02-14T13:58:00;7.95;;;3.22;;
20984;SDS011;10651;47.552;7.606;2024-02-14T14:00:26;5.55;;;2.80;;
20984;SDS011;10651;47.552;7.606;2024-02-14T14:02:55;6.43;;;2.50;;
20984;SDS011;10651;47.552;7.606;2024-02-14T14:05:22;5.68;;;2.40;;
20984;SDS011;10651;47.552;7.606;2024-02-14T14:07:48;6.15;;;2.60;;
20984;SDS011;10651;47.552;7.606;2024-02-14T14:10:14;7.47;;;2.40;;
20984;SDS011;10651;47.552;7.606;2024-02-14T14:12:40;4.82;;;2.38;;
20984;SDS011;10651;47.552;7.606;2024-02-14T14:15:06;6.88;;;2.35;;
20984;SDS011;10651;47.552;7.606;2024-02-14T14:17:35;7.13;;;2.63;;
20984;SDS011;10651;47.552;7.606;2024-02-14T14:20:04;4.43;;;2.60;;
20984;SDS011;10651;47.552;7.606;2024-02-14T14:22:34;3.10;;;2.30;;
20984;SDS011;10651;47.552;7.606;2024-02-14T14:25:09;3.72;;;2.30;;
20984;SDS011;10651;47.552;7.606;2024-02-14T14:27:35;11.50;;;2.53;;
20984;SDS011;10651;47.552;7.606;2024-02-14T14:30:01;9.18;;;2.10;;
20984;SDS011;10651;47.552;7.606;2024-02-14T14:32:33;5.43;;;2.10;;
20984;SDS011;10651;47.552;7.606;2024-02-14T14:34:59;5.18;;;2.20;;
20984;SDS011;10651;47.552;7.606;2024-02-14T14:37:25;5.50;;;1.90;;
20984;SDS011;10651;47.552;7.606;2024-02-14T14:39:51;2.85;;;1.58;;
20984;SDS011;10651;47.552;7.606;2024-02-14T14:42:17;2.22;;;1.40;;
20984;SDS011;10651;47.552;7.606;2024-02-14T14:44:43;1.20;;;1.10;;
20984;SDS011;10651;47.552;7.606;2024-02-14T14:47:09;1.60;;;1.48;;
20984;SDS011;10651;47.552;7.606;2024-02-14T14:49:36;1.85;;;1.00;;
20984;SDS011;10651;47.552;7.606;2024-02-14T14:52:17;3.97;;;1.20;;
20984;SDS011;10651;47.552;7.606;2024-02-14T14:54:49;3.15;;;1.60;;
20984;SDS011;10651;47.552;7.606;2024-02-14T14:57:29;3.75;;;1.38;;
20984;SDS011;10651;47.552;7.606;2024-02-14T15:00:04;4.22;;;1.23;;
20984;SDS011;10651;47.552;7.606;2024-02-14T15:02:43;8.02;;;2.47;;
20984;SDS011;10651;47.552;7.606;2024-02-14T15:05:15;5.05;;;3.10;;
20984;SDS011;10651;47.552;7.606;2024-02-14T15:07:44;8.27;;;3.15;;
20984;SDS011;10651;47.552;7.606;2024-02-14T15:10:10;8.05;;;3.17;;
20984;SDS011;10651;47.552;7.606;2024-02-14T15:12:39;6.13;;;3.03;;
20984;SDS011;10651;47.552;7.606;2024-02-14T15:15:05;8.73;;;3.45;;
20984;SDS011;10651;47.552;7.606;2024-02-14T15:17:32;7.68;;;3.40;;
20984;SDS011;10651;47.552;7.606;2024-02-14T15:19:58;8.32;;;3.13;;
20984;SDS011;10651;47.552;7.606;2024-02-14T15:22:25;9.38;;;2.85;;
20984;SDS011;10651;47.552;7.606;2024-02-14T15:24:54;5.65;;;1.73;;
20984;SDS011;10651;47.552;7.606;2024-02-14T15:27:20;2.13;;;1.48;;
20984;SDS011;10651;47.552;7.606;2024-02-14T15:29:49;4.05;;;1.80;;
20984;SDS011;10651;47.552;7.606;2024-02-14T15:32:36;3.20;;;1.63;;
20984;SDS011;10651;47.552;7.606;2024-02-14T15:35:20;2.13;;;1.40;;
20984;SDS011;10651;47.552;7.606;2024-02-14T15:37:50;2.08;;;1.52;;
20984;SDS011;10651;47.552;7.606;2024-02-14T15:40:18;3.33;;;2.40;;
20984;SDS011;10651;47.552;7.606;2024-02-14T15:42:44;2.28;;;1.95;;
20984;SDS011;10651;47.552;7.606;2024-02-14T15:45:20;2.17;;;1.70;;
20984;SDS011;10651;47.552;7.606;2024-02-14T15:47:55;2.83;;;1.75;;
20984;SDS011;10651;47.552;7.606;2024-02-14T15:50:26;4.25;;;1.40;;
20984;SDS011;10651;47.552;7.606;2024-02-14T15:52:55;4.32;;;1.60;;
20984;SDS011;10651;47.552;7.606;2024-02-14T15:55:21;4.70;;;1.70;;
20984;SDS011;10651;47.552;7.606;2024-02-14T15:57:47;4.93;;;2.50;;
20984;SDS011;10651;47.552;7.606;2024-02-14T16:00:14;7.25;;;2.10;;
20984;SDS011;10651;47.552;7.606;2024-02-14T16:02:40;3.80;;;2.40;;
20984;SDS011;10651;47.552;7.606;2024-02-14T16:05:07;9.48;;;2.42;;
20984;SDS011;10651;47.552;7.606;2024-02-14T16:07:37;6.05;;;2.78;;
20984;SDS011;10651;47.552;7.606;2024-02-14T16:10:03;9.50;;;2.70;;
20984;SDS011;10651;47.552;7.606;2024-02-14T16:12:36;6.30;;;2.33;;
20984;SDS011;10651;47.552;7.606;2024-02-14T16:15:02;7.60;;;2.35;;
20984;SDS011;10651;47.552;7.606;2024-02-14T16:17:31;7.95;;;2.97;;
20984;SDS011;10651;47.552;7.606;2024-02-14T16:19:57;8.77;;;2.72;;
20984;SDS011;10651;47.552;7.606;2024-02-14T16:22:23;7.10;;;2.50;;
20984;SDS011;10651;47.552;7.606;2024-02-14T16:24:49;4.53;;;2.58;;
20984;SDS011;10651;47.552;7.606;2024-02-14T16:27:19;4.85;;;2.33;;
20984;SDS011;10651;47.552;7.606;2024-02-14T16:29:45;6.13;;;2.50;;
20984;SDS011;10651;47.552;7.606;2024-02-14T16:32:14;8.02;;;2.65;;
20984;SDS011;10651;47.552;7.606;2024-02-14T16:34:40;8.32;;;3.28;;
20984;SDS011;10651;47.552;7.606;2024-02-14T16:37:14;9.35;;;2.90;;
20984;SDS011;10651;47.552;7.606;2024-02-14T16:39:44;5.65;;;3.25;;
20984;SDS011;10651;47.552;7.606;2024-02-14T16:42:16;9.15;;;3.47;;
20984;SDS011;10651;47.552;7.606;2024-02-14T16:44:43;7.88;;;3.10;;
20984;SDS011;10651;47.552;7.606;2024-02-14T16:47:09;11.63;;;3.97;;
20984;SDS011;10651;47.552;7.606;2024-02-14T16:49:35;14.10;;;4.20;;
20984;SDS011;10651;47.552;7.606;2024-02-14T16:52:01;9.70;;;2.97;;
20984;SDS011;10651;47.552;7.606;2024-02-14T16:54:28;8.43;;;3.33;;
20984;SDS011;10651;47.552;7.606;2024-02-14T16:56:55;5.82;;;2.75;;
20984;SDS011;10651;47.552;7.606;2024-02-14T16:59:30;7.82;;;3.35;;
20984;SDS011;10651;47.552;7.606;2024-02-14T17:01:59;6.35;;;3.10;;
20984;SDS011;10651;47.552;7.606;2024-02-14T17:04:25;5.22;;;2.83;;
20984;SDS011;10651;47.552;7.606;2024-02-14T17:06:52;6.78;;;2.85;;
20984;SDS011;10651;47.552;7.606;2024-02-14T17:09:19;6.20;;;3.05;;
20984;SDS011;10651;47.552;7.606;2024-02-14T17:11:44;5.80;;;2.92;;
20984;SDS011;10651;47.552;7.606;2024-02-14T17:14:10;8.02;;;3.97;;
20984;SDS011;10651;47.552;7.606;2024-02-14T17:16:36;7.80;;;3.63;;
20984;SDS011;10651;47.552;7.606;2024-02-14T17:19:02;5.65;;;3.50;;
20984;SDS011;10651;47.552;7.606;2024-02-14T17:21:29;10.63;;;3.97;;
20984;SDS011;10651;47.552;7.606;2024-02-14T17:23:55;4.70;;;3.15;;
20984;SDS011;10651;47.552;7.606;2024-02-14T17:26:21;6.72;;;3.03;;
20984;SDS011;10651;47.552;7.606;2024-02-14T17:28:46;6.45;;;3.50;;
20984;SDS011;10651;47.552;7.606;2024-02-14T17:31:12;9.98;;;4.00;;
20984;SDS011;10651;47.552;7.606;2024-02-14T17:33:39;10.18;;;3.38;;
20984;SDS011;10651;47.552;7.606;2024-02-14T17:36:05;5.97;;;3.50;;
20984;SDS011;10651;47.552;7.606;2024-02-14T17:38:30;8.35;;;3.55;;
20984;SDS011;10651;47.552;7.606;2024-02-14T17:40:56;15.30;;;3.97;;
20984;SDS011;10651;47.552;7.606;2024-02-14T17:43:22;5.97;;;4.03;;
20984;SDS011;10651;47.552;7.606;2024-02-14T17:45:47;10.77;;;4.15;;
20984;SDS011;10651;47.552;7.606;2024-02-14T17:48:13;13.68;;;4.20;;
20984;SDS011;10651;47.552;7.606;2024-02-14T17:50:39;7.95;;;3.97;;
20984;SDS011;10651;47.552;7.606;2024-02-14T17:53:06;6.97;;;3.72;;
20984;SDS011;10651;47.552;7.606;2024-02-14T17:55:33;9.90;;;4.60;;
20984;SDS011;10651;47.552;7.606;2024-02-14T17:57:58;8.77;;;5.05;;
20984;SDS011;10651;47.552;7.606;2024-02-14T18:00:27;14.27;;;4.97;;
20984;SDS011;10651;47.552;7.606;2024-02-14T18:02:53;11.25;;;4.65;;
20984;SDS011;10651;47.552;7.606;2024-02-14T18:05:19;13.27;;;5.40;;
20984;SDS011;10651;47.552;7.606;2024-02-14T18:07:44;14.68;;;6.65;;
20984;SDS011;10651;47.552;7.606;2024-02-14T18:10:10;12.18;;;6.20;;
20984;SDS011;10651;47.552;7.606;2024-02-14T18:12:36;10.52;;;7.13;;
20984;SDS011;10651;47.552;7.606;2024-02-14T18:15:03;9.20;;;5.07;;
20984;SDS011;10651;47.552;7.606;2024-02-14T18:17:32;9.52;;;5.78;;
20984;SDS011;10651;47.552;7.606;2024-02-14T18:19:59;13.85;;;6.53;;
20984;SDS011;10651;47.552;7.606;2024-02-14T18:22:25;16.33;;;6.43;;
20984;SDS011;10651;47.552;7.606;2024-02-14T18:24:50;9.10;;;5.90;;
20984;SDS011;10651;47.552;7.606;2024-02-14T18:27:16;13.43;;;6.10;;
20984;SDS011;10651;47.552;7.606;2024-02-14T18:29:42;10.98;;;5.68;;
20984;SDS011;10651;47.552;7.606;2024-02-14T18:32:11;8.90;;;5.38;;
20984;SDS011;10651;47.552;7.606;2024-02-14T18:34:36;11.13;;;5.57;;
20984;SDS011;10651;47.552;7.606;2024-02-14T18:37:03;10.02;;;5.22;;
20984;SDS011;10651;47.552;7.606;2024-02-14T18:39:28;11.43;;;5.88;;
20984;SDS011;10651;47.552;7.606;2024-02-14T18:41:54;13.45;;;5.45;;
20984;SDS011;10651;47.552;7.606;2024-02-14T18:44:20;13.48;;;6.40;;
20984;SDS011;10651;47.552;7.606;2024-02-14T18:46:45;11.75;;;5.18;;
20984;SDS011;10651;47.552;7.606;2024-02-14T18:49:11;7.60;;;4.95;;
20984;SDS011;10651;47.552;7.606;2024-02-14T18:51:37;14.45;;;5.18;;
20984;SDS011;10651;47.552;7.606;2024-02-14T18:54:06;12.30;;;5.70;;
20984;SDS011;10651;47.552;7.606;2024-02-14T18:56:34;10.30;;;4.80;;
20984;SDS011;10651;47.552;7.606;2024-02-14T18:59:01;7.88;;;5.00;;
20984;SDS011;10651;47.552;7.606;2024-02-14T19:01:27;8.77;;;5.10;;
20984;SDS011;10651;47.552;7.606;2024-02-14T19:03:53;5.57;;;4.07;;
20984;SDS011;10651;47.552;7.606;2024-02-14T19:06:20;7.18;;;4.97;;
20984;SDS011;10651;47.552;7.606;2024-02-14T19:08:47;8.70;;;5.13;;
20984;SDS011;10651;47.552;7.606;2024-02-14T19:11:13;6.85;;;4.78;;
20984;SDS011;10651;47.552;7.606;2024-02-14T19:13:39;13.98;;;5.03;;
20984;SDS011;10651;47.552;7.606;2024-02-14T19:16:05;13.95;;;4.93;;
20984;SDS011;10651;47.552;7.606;2024-02-14T19:18:32;10.38;;;5.28;;
20984;SDS011;10651;47.552;7.606;2024-02-14T19:20:58;18.63;;;5.53;;
20984;SDS011;10651;47.552;7.606;2024-02-14T19:23:25;10.13;;;4.75;;
20984;SDS011;10651;47.552;7.606;2024-02-14T19:25:51;6.47;;;4.93;;
20984;SDS011;10651;47.552;7.606;2024-02-14T19:28:20;8.50;;;4.57;;
20984;SDS011;10651;47.552;7.606;2024-02-14T19:30:46;9.10;;;5.32;;
20984;SDS011;10651;47.552;7.606;2024-02-14T19:33:12;14.07;;;5.65;;
20984;SDS011;10651;47.552;7.606;2024-02-14T19:35:37;9.77;;;5.13;;
20984;SDS011;10651;47.552;7.606;2024-02-14T19:38:03;12.23;;;5.75;;
20984;SDS011;10651;47.552;7.606;2024-02-14T19:40:29;8.75;;;5.82;;
20984;SDS011;10651;47.552;7.606;2024-02-14T19:42:56;11.77;;;5.45;;
20984;SDS011;10651;47.552;7.606;2024-02-14T19:45:22;13.80;;;5.93;;
20984;SDS011;10651;47.552;7.606;2024-02-14T19:47:47;9.77;;;5.53;;
20984;SDS011;10651;47.552;7.606;2024-02-14T19:50:19;14.00;;;5.95;;
20984;SDS011;10651;47.552;7.606;2024-02-14T19:52:46;7.45;;;5.40;;
20984;SDS011;10651;47.552;7.606;2024-02-14T19:55:12;15.15;;;6.22;;
20984;SDS011;10651;47.552;7.606;2024-02-14T19:57:39;17.60;;;6.28;;
20984;SDS011;10651;47.552;7.606;2024-02-14T20:00:05;11.27;;;5.90;;
20984;SDS011;10651;47.552;7.606;2024-02-14T20:02:35;14.18;;;6.70;;
20984;SDS011;10651;47.552;7.606;2024-02-14T20:05:01;13.55;;;6.68;;
20984;SDS011;10651;47.552;7.606;2024-02-14T20:07:33;17.05;;;6.43;;
20984;SDS011;10651;47.552;7.606;2024-02-14T20:10:00;11.80;;;6.22;;
20984;SDS011;10651;47.552;7.606;2024-02-14T20:12:26;12.60;;;6.03;;
20984;SDS011;10651;47.552;7.606;2024-02-14T20:14:52;13.48;;;7.03;;
20984;SDS011;10651;47.552;7.606;2024-02-14T20:17:20;18.45;;;6.30;;
20984;SDS011;10651;47.552;7.606;2024-02-14T20:19:46;8.80;;;5.63;;
20984;SDS011;10651;47.552;7.606;2024-02-14T20:22:11;13.75;;;5.60;;
20984;SDS011;10651;47.552;7.606;2024-02-14T20:24:37;12.68;;;6.32;;
20984;SDS011;10651;47.552;7.606;2024-02-14T20:27:06;8.60;;;6.38;;
20984;SDS011;10651;47.552;7.606;2024-02-14T20:29:32;12.55;;;6.00;;
20984;SDS011;10651;47.552;7.606;2024-02-14T20:31:58;10.68;;;5.80;;
20984;SDS011;10651;47.552;7.606;2024-02-14T20:34:24;9.27;;;6.43;;
20984;SDS011;10651;47.552;7.606;2024-02-14T20:36:50;12.50;;;6.82;;
20984;SDS011;10651;47.552;7.606;2024-02-14T20:39:16;14.02;;;7.82;;
20984;SDS011;10651;47.552;7.606;2024-02-14T20:41:42;11.23;;;6.68;;
20984;SDS011;10651;47.552;7.606;2024-02-14T20:44:08;12.38;;;7.05;;
20984;SDS011;10651;47.552;7.606;2024-02-14T20:46:34;16.98;;;6.88;;
20984;SDS011;10651;47.552;7.606;2024-02-14T20:49:00;14.55;;;7.32;;
20984;SDS011;10651;47.552;7.606;2024-02-14T20:51:26;14.25;;;7.32;;
20984;SDS011;10651;47.552;7.606;2024-02-14T20:53:53;11.07;;;7.35;;
20984;SDS011;10651;47.552;7.606;2024-02-14T20:56:21;13.13;;;7.25;;
20984;SDS011;10651;47.552;7.606;2024-02-14T20:58:47;16.02;;;7.28;;
20984;SDS011;10651;47.552;7.606;2024-02-14T21:01:13;19.52;;;7.13;;
20984;SDS011;10651;47.552;7.606;2024-02-14T21:03:40;11.73;;;6.70;;
20984;SDS011;10651;47.552;7.606;2024-02-14T21:06:05;13.80;;;7.80;;
20984;SDS011;10651;47.552;7.606;2024-02-14T21:08:31;9.85;;;6.75;;
20984;SDS011;10651;47.552;7.606;2024-02-14T21:10:57;10.02;;;6.65;;
20984;SDS011;10651;47.552;7.606;2024-02-14T21:13:23;12.80;;;7.60;;
20984;SDS011;10651;47.552;7.606;2024-02-14T21:15:48;14.25;;;7.43;;
20984;SDS011;10651;47.552;7.606;2024-02-14T21:18:14;15.90;;;7.72;;
20984;SDS011;10651;47.552;7.606;2024-02-14T21:20:40;17.02;;;8.10;;
20984;SDS011;10651;47.552;7.606;2024-02-14T21:23:06;18.42;;;9.55;;
20984;SDS011;10651;47.552;7.606;2024-02-14T21:25:32;19.08;;;9.45;;
20984;SDS011;10651;47.552;7.606;2024-02-14T21:27:58;15.23;;;8.77;;
20984;SDS011;10651;47.552;7.606;2024-02-14T21:30:25;21.77;;;10.25;;
20984;SDS011;10651;47.552;7.606;2024-02-14T21:32:51;18.23;;;11.43;;
20984;SDS011;10651;47.552;7.606;2024-02-14T21:35:17;24.48;;;10.40;;
20984;SDS011;10651;47.552;7.606;2024-02-14T21:37:43;22.10;;;10.40;;
20984;SDS011;10651;47.552;7.606;2024-02-14T21:40:11;15.98;;;11.05;;
20984;SDS011;10651;47.552;7.606;2024-02-14T21:42:37;26.30;;;12.82;;
20984;SDS011;10651;47.552;7.606;2024-02-14T21:45:04;23.17;;;12.38;;
20984;SDS011;10651;47.552;7.606;2024-02-14T21:47:31;23.83;;;12.15;;
20984;SDS011;10651;47.552;7.606;2024-02-14T21:49:57;20.50;;;12.40;;
20984;SDS011;10651;47.552;7.606;2024-02-14T21:52:23;18.80;;;11.93;;
20984;SDS011;10651;47.552;7.606;2024-02-14T21:54:50;20.48;;;12.50;;